createdAt,value
2017-05-16T00:00:06.238Z,1025.26
2017-05-16T00:01:15.197Z,1025.23
2017-05-16T00:02:24.648Z,1025.3
2017-05-16T00:03:33.930Z,1025.28
2017-05-16T00:04:43.809Z,1025.29
2017-05-16T00:05:53.091Z,1025.29
2017-05-16T00:07:02.058Z,1025.29
2017-05-16T00:08:11.946Z,1025.31
2017-05-16T00:09:22.285Z,1025.33
2017-05-16T00:10:32.221Z,1025.27
2017-05-16T00:11:42.165Z,1025.28
2017-05-16T00:12:52.234Z,1025.26
2017-05-16T00:14:03.184Z,1025.29
2017-05-16T00:15:13.230Z,1025.29
2017-05-16T00:16:22.574Z,1025.32
2017-05-16T00:17:32.618Z,1025.29
2017-05-16T00:18:41.629Z,1025.32
2017-05-16T00:19:51.619Z,1025.3
2017-05-16T00:21:02.481Z,1025.28
2017-05-16T00:22:11.684Z,1025.27
2017-05-16T00:23:20.734Z,1025.3
2017-05-16T00:24:30.818Z,1025.32
2017-05-16T00:25:40.848Z,1025.32
2017-05-16T00:26:50.394Z,1025.32
2017-05-16T00:27:59.497Z,1025.38
2017-05-16T00:29:08.788Z,1025.33
2017-05-16T00:30:18.324Z,1025.38
2017-05-16T00:31:28.064Z,1025.4
2017-05-16T00:32:37.498Z,1025.35
2017-05-16T00:33:46.890Z,1025.32
2017-05-16T00:34:56.509Z,1025.32
2017-05-16T00:36:06.523Z,1025.37
2017-05-16T00:37:16.005Z,1025.35
2017-05-16T00:38:25.433Z,1025.34
2017-05-16T00:39:34.553Z,1025.33
2017-05-16T00:40:43.972Z,1025.34
2017-05-16T00:41:53.124Z,1025.32
2017-05-16T00:43:03.828Z,1025.31
2017-05-16T00:44:13.021Z,1025.3
2017-05-16T00:45:22.236Z,1025.28
2017-05-16T00:46:32.447Z,1025.28
2017-05-16T00:47:42.207Z,1025.27
2017-05-16T00:48:51.468Z,1025.28
2017-05-16T00:50:00.428Z,1025.27
2017-05-16T00:51:09.471Z,1025.3
2017-05-16T00:52:18.434Z,1025.3
2017-05-16T00:53:27.524Z,1025.28
2017-05-16T00:54:44.038Z,1025.31
2017-05-16T00:55:56.656Z,1025.31
2017-05-16T00:57:08.321Z,1025.34
2017-05-16T00:58:19.544Z,1025.35
2017-05-16T00:59:30.323Z,1025.35
2017-05-16T01:00:39.538Z,1025.34
2017-05-16T01:01:49.908Z,1025.35
2017-05-16T01:02:59.615Z,1025.37
2017-05-16T01:04:09.410Z,1025.37
2017-05-16T01:05:19.816Z,1025.35
2017-05-16T01:06:31.196Z,1025.37
2017-05-16T01:07:41.560Z,1025.36
2017-05-16T01:08:52.222Z,1025.37
2017-05-16T01:10:03.186Z,1025.37
2017-05-16T01:11:13.829Z,1025.34
2017-05-16T01:12:23.276Z,1025.37
2017-05-16T01:13:32.240Z,1025.33
2017-05-16T01:14:41.635Z,1025.29
2017-05-16T01:15:50.600Z,1025.33
2017-05-16T01:16:59.887Z,1025.35
2017-05-16T01:19:34.268Z,1025.35
2017-05-16T01:20:43.773Z,1025.35
2017-05-16T01:21:53.203Z,1025.34
2017-05-16T01:23:03.945Z,1025.34
2017-05-16T01:24:14.789Z,1025.35
2017-05-16T01:25:24.961Z,1025.39
2017-05-16T01:26:34.219Z,1025.36
2017-05-16T01:27:43.669Z,1025.37
2017-05-16T01:28:53.334Z,1025.33
2017-05-16T01:30:03.304Z,1025.31
2017-05-16T01:31:12.588Z,1025.31
2017-05-16T01:32:22.294Z,1025.29
2017-05-16T01:33:32.135Z,1025.3
2017-05-16T01:34:43.371Z,1025.28
2017-05-16T01:35:54.760Z,1025.28
2017-05-16T01:37:05.614Z,1025.27
2017-05-16T01:38:15.842Z,1025.24
2017-05-16T01:39:27.069Z,1025.21
2017-05-16T01:40:37.330Z,1025.22
2017-05-16T01:41:46.292Z,1025.24
2017-05-16T01:42:55.601Z,1025.24
2017-05-16T01:44:04.868Z,1025.26
2017-05-16T01:45:15.122Z,1025.24
2017-05-16T01:46:24.831Z,1025.22
2017-05-16T01:47:34.955Z,1025.21
2017-05-16T01:48:44.949Z,1025.23
2017-05-16T01:49:55.042Z,1025.19
2017-05-16T01:51:03.998Z,1025.21
2017-05-16T01:52:13.217Z,1025.21
2017-05-16T01:53:22.176Z,1025.23
2017-05-16T01:54:32.339Z,1025.25
2017-05-16T01:55:41.304Z,1025.24
2017-05-16T01:56:50.465Z,1025.25
2017-05-16T01:57:59.685Z,1025.24
2017-05-16T01:59:08.646Z,1025.22
2017-05-16T02:00:17.613Z,1025.2
2017-05-16T02:01:26.567Z,1025.22
2017-05-16T02:02:35.530Z,1025.22
2017-05-16T02:03:45.315Z,1025.19
2017-05-16T02:04:54.282Z,1025.21
2017-05-16T02:06:03.244Z,1025.15
2017-05-16T02:07:12.205Z,1025.19
2017-05-16T02:08:21.163Z,1025.17
2017-05-16T02:09:30.456Z,1025.15
2017-05-16T02:10:39.413Z,1025.15
2017-05-16T02:11:48.786Z,1025.18
2017-05-16T02:12:57.749Z,1025.13
2017-05-16T02:14:06.711Z,1025.13
2017-05-16T02:15:15.924Z,1025.18
2017-05-16T02:16:24.882Z,1025.18
2017-05-16T02:17:33.847Z,1025.17
2017-05-16T02:18:42.821Z,1025.17
2017-05-16T02:19:51.781Z,1025.16
2017-05-16T02:21:00.997Z,1025.13
2017-05-16T02:22:09.961Z,1025.12
2017-05-16T02:23:19.097Z,1025.13
2017-05-16T02:24:28.147Z,1025.18
2017-05-16T02:25:37.105Z,1025.16
2017-05-16T02:26:46.890Z,1025.19
2017-05-16T02:27:55.850Z,1025.17
2017-05-16T02:29:04.820Z,1025.17
2017-05-16T02:30:14.108Z,1025.2
2017-05-16T02:31:23.126Z,1025.16
2017-05-16T02:32:32.336Z,1025.16
2017-05-16T02:33:41.383Z,1025.15
2017-05-16T02:34:50.341Z,1025.16
2017-05-16T02:35:59.397Z,1025.19
2017-05-16T02:37:08.363Z,1025.19
2017-05-16T02:38:17.579Z,1025.2
2017-05-16T02:39:27.738Z,1025.19
2017-05-16T02:40:37.031Z,1025.18
2017-05-16T02:41:45.996Z,1025.19
2017-05-16T02:42:54.961Z,1025.21
2017-05-16T02:44:04.177Z,1025.17
2017-05-16T02:45:13.142Z,1025.13
2017-05-16T02:46:22.190Z,1025.25
2017-05-16T02:47:31.482Z,1025.2
2017-05-16T02:48:40.446Z,1025.24
2017-05-16T02:49:49.886Z,1025.22
2017-05-16T02:50:58.851Z,1025.24
2017-05-16T02:52:07.898Z,1025.22
2017-05-16T02:53:16.855Z,1025.2
2017-05-16T02:54:25.825Z,1025.19
2017-05-16T02:55:35.033Z,1025.17
2017-05-16T02:56:43.996Z,1025.26
2017-05-16T02:57:52.962Z,1025.23
2017-05-16T02:59:01.923Z,1025.27
2017-05-16T03:00:10.967Z,1025.28
2017-05-16T03:01:20.177Z,1025.29
2017-05-16T03:02:30.644Z,1025.32
2017-05-16T03:03:39.607Z,1025.31
2017-05-16T03:04:48.571Z,1025.3
2017-05-16T03:05:58.060Z,1025.32
2017-05-16T03:07:07.273Z,1025.28
2017-05-16T03:08:16.232Z,1025.27
2017-05-16T03:09:25.485Z,1025.27
2017-05-16T03:10:34.449Z,1025.3
2017-05-16T03:11:43.405Z,1025.32
2017-05-16T03:12:52.667Z,1025.31
2017-05-16T03:14:01.627Z,1025.31
2017-05-16T03:15:10.589Z,1025.33
2017-05-16T03:16:19.546Z,1025.3
2017-05-16T03:17:28.591Z,1025.33
2017-05-16T03:18:37.807Z,1025.34
2017-05-16T03:19:46.768Z,1025.34
2017-05-16T03:20:55.731Z,1025.36
2017-05-16T03:22:04.698Z,1025.32
2017-05-16T03:23:13.742Z,1025.37
2017-05-16T03:24:22.953Z,1025.36
2017-05-16T03:25:31.917Z,1025.37
2017-05-16T03:26:40.879Z,1025.36
2017-05-16T03:27:49.848Z,1025.33
2017-05-16T03:28:58.818Z,1025.36
2017-05-16T03:30:08.170Z,1025.31
2017-05-16T03:31:17.131Z,1025.33
2017-05-16T03:32:26.091Z,1025.32
2017-05-16T03:33:35.063Z,1025.29
2017-05-16T03:34:44.017Z,1025.29
2017-05-16T03:35:53.287Z,1025.31
2017-05-16T03:37:02.246Z,1025.33
2017-05-16T03:38:11.205Z,1025.29
2017-05-16T03:39:20.181Z,1025.3
2017-05-16T03:40:29.141Z,1025.29
2017-05-16T03:41:38.416Z,1025.33
2017-05-16T03:42:47.372Z,1025.35
2017-05-16T03:43:56.336Z,1025.32
2017-05-16T03:45:05.294Z,1025.32
2017-05-16T03:46:14.252Z,1025.34
2017-05-16T03:48:47.674Z,1025.33
2017-05-16T03:49:56.639Z,1025.33
2017-05-16T03:51:05.601Z,1025.35
2017-05-16T03:52:14.567Z,1025.35
2017-05-16T03:53:23.838Z,1025.32
2017-05-16T03:54:32.812Z,1025.29
2017-05-16T03:55:41.774Z,1025.28
2017-05-16T03:56:50.826Z,1025.28
2017-05-16T03:57:59.790Z,1025.25
2017-05-16T03:59:09.050Z,1025.23
2017-05-16T04:00:18.011Z,1025.28
2017-05-16T04:01:27.149Z,1025.26
2017-05-16T04:02:36.111Z,1025.26
2017-05-16T04:03:45.163Z,1025.24
2017-05-16T04:04:54.432Z,1025.22
2017-05-16T04:06:03.391Z,1025.24
2017-05-16T04:07:12.348Z,1025.25
2017-05-16T04:08:21.318Z,1025.23
2017-05-16T04:09:30.278Z,1025.2
2017-05-16T04:10:39.863Z,1025.18
2017-05-16T04:11:49.144Z,1025.22
2017-05-16T04:12:58.104Z,1025.2
2017-05-16T04:14:07.064Z,1025.23
2017-05-16T04:15:16.024Z,1025.24
2017-05-16T04:16:25.282Z,1025.27
2017-05-16T04:17:34.241Z,1025.23
2017-05-16T04:18:44.415Z,1025.22
2017-05-16T04:19:53.375Z,1025.26
2017-05-16T04:21:02.337Z,1025.23
2017-05-16T04:22:11.648Z,1025.22
2017-05-16T04:23:20.697Z,1025.28
2017-05-16T04:24:29.656Z,1025.25
2017-05-16T04:25:38.625Z,1025.27
2017-05-16T04:26:47.584Z,1025.27
2017-05-16T04:27:56.797Z,1025.29
2017-05-16T04:29:05.776Z,1025.24
2017-05-16T04:30:14.737Z,1025.28
2017-05-16T04:31:24.027Z,1025.25
2017-05-16T04:32:33.081Z,1025.3
2017-05-16T04:33:42.354Z,1025.29
2017-05-16T04:34:51.644Z,1025.28
2017-05-16T04:36:00.693Z,1025.29
2017-05-16T04:37:09.654Z,1025.31
2017-05-16T04:38:18.624Z,1025.27
2017-05-16T04:39:27.886Z,1025.26
2017-05-16T04:40:36.842Z,1025.29
2017-05-16T04:41:45.801Z,1025.32
2017-05-16T04:42:54.760Z,1025.3
2017-05-16T04:44:03.821Z,1025.3
2017-05-16T04:45:13.131Z,1025.32
2017-05-16T04:46:22.317Z,1025.36
2017-05-16T04:47:31.282Z,1025.35
2017-05-16T04:48:40.244Z,1025.35
2017-05-16T04:49:49.213Z,1025.37
2017-05-16T04:50:58.562Z,1025.43
2017-05-16T04:52:07.522Z,1025.39
2017-05-16T04:53:16.481Z,1025.43
2017-05-16T04:54:25.767Z,1025.39
2017-05-16T04:55:34.729Z,1025.42
2017-05-16T04:56:44.125Z,1025.38
2017-05-16T04:57:53.081Z,1025.41
2017-05-16T04:59:02.045Z,1025.42
2017-05-16T05:00:11.008Z,1025.43
2017-05-16T05:01:19.974Z,1025.42
2017-05-16T05:02:29.283Z,1025.44
2017-05-16T05:03:38.339Z,1025.44
2017-05-16T05:04:47.389Z,1025.44
2017-05-16T05:05:56.348Z,1025.49
2017-05-16T05:07:05.308Z,1025.49
2017-05-16T05:08:15.822Z,1025.51
2017-05-16T05:09:24.784Z,1025.49
2017-05-16T05:10:33.958Z,1025.56
2017-05-16T05:11:42.920Z,1025.58
2017-05-16T05:12:51.879Z,1025.57
2017-05-16T05:14:01.191Z,1025.6
2017-05-16T05:15:10.154Z,1025.64
2017-05-16T05:16:19.284Z,1025.62
2017-05-16T05:17:28.240Z,1025.63
2017-05-16T05:18:37.194Z,1025.65
2017-05-16T05:19:46.518Z,1025.66
2017-05-16T05:20:55.481Z,1025.65
2017-05-16T05:22:04.445Z,1025.63
2017-05-16T05:23:13.456Z,1025.59
2017-05-16T05:24:22.419Z,1025.64
2017-05-16T05:25:31.735Z,1025.62
2017-05-16T05:26:40.695Z,1025.61
2017-05-16T05:27:49.656Z,1025.63
2017-05-16T05:28:58.942Z,1025.56
2017-05-16T05:30:08.037Z,1025.58
2017-05-16T05:31:17.245Z,1025.57
2017-05-16T05:32:26.206Z,1025.58
2017-05-16T05:33:35.166Z,1025.52
2017-05-16T05:34:44.660Z,1025.52
2017-05-16T05:35:53.630Z,1025.55
2017-05-16T05:37:02.926Z,1025.55
2017-05-16T05:38:11.975Z,1025.5
2017-05-16T05:39:20.944Z,1025.55
2017-05-16T05:40:30.246Z,1025.54
2017-05-16T05:41:39.309Z,1025.6
2017-05-16T05:42:49.613Z,1025.58
2017-05-16T05:43:58.994Z,1025.59
2017-05-16T05:45:07.959Z,1025.6
2017-05-16T05:46:16.921Z,1025.59
2017-05-16T05:47:26.085Z,1025.62
2017-05-16T05:48:35.344Z,1025.6
2017-05-16T05:49:44.312Z,1025.63
2017-05-16T05:50:53.279Z,1025.64
2017-05-16T05:52:02.380Z,1025.63
2017-05-16T05:53:11.429Z,1025.67
2017-05-16T05:54:20.909Z,1025.67
2017-05-16T05:55:30.068Z,1025.67
2017-05-16T05:56:39.028Z,1025.69
2017-05-16T05:57:47.991Z,1025.72
2017-05-16T05:58:57.172Z,1025.73
2017-05-16T06:00:09.086Z,1025.75
2017-05-16T06:01:21.429Z,1025.76
2017-05-16T06:02:33.087Z,1025.75
2017-05-16T06:03:43.682Z,1025.71
2017-05-16T06:04:52.646Z,1025.75
2017-05-16T06:06:02.064Z,1025.76
2017-05-16T06:07:11.115Z,1025.77
2017-05-16T06:08:20.174Z,1025.8
2017-05-16T06:09:29.226Z,1025.79
2017-05-16T06:10:38.186Z,1025.77
2017-05-16T06:11:47.656Z,1025.78
2017-05-16T06:12:57.197Z,1025.77
2017-05-16T06:14:06.194Z,1025.8
2017-05-16T06:15:15.161Z,1025.8
2017-05-16T06:16:24.126Z,1025.81
2017-05-16T06:17:33.384Z,1025.82
2017-05-16T06:18:42.343Z,1025.86
2017-05-16T06:19:51.305Z,1025.87
2017-05-16T06:21:00.269Z,1025.91
2017-05-16T06:22:09.334Z,1025.94
2017-05-16T06:23:18.955Z,1025.89
2017-05-16T06:24:28.268Z,1025.92
2017-05-16T06:25:38.431Z,1025.92
2017-05-16T06:26:47.813Z,1025.93
2017-05-16T06:27:56.773Z,1025.96
2017-05-16T06:29:06.043Z,1025.93
2017-05-16T06:30:15.028Z,1025.93
2017-05-16T06:31:24.084Z,1025.91
2017-05-16T06:32:33.197Z,1025.88
2017-05-16T06:33:42.157Z,1025.92
2017-05-16T06:34:51.518Z,1025.89
2017-05-16T06:36:02.198Z,1025.93
2017-05-16T06:37:11.710Z,1025.92
2017-05-16T06:38:21.829Z,1025.9
2017-05-16T06:39:31.439Z,1025.94
2017-05-16T06:40:41.838Z,1025.93
2017-05-16T06:41:52.253Z,1025.91
2017-05-16T06:43:01.810Z,1025.91
2017-05-16T06:44:10.781Z,1025.92
2017-05-16T06:45:19.744Z,1025.94
2017-05-16T06:46:29.007Z,1025.97
2017-05-16T06:47:37.971Z,1025.94
2017-05-16T06:48:46.933Z,1025.99
2017-05-16T06:49:55.894Z,1025.95
2017-05-16T06:51:04.861Z,1025.94
2017-05-16T06:52:14.443Z,1025.97
2017-05-16T06:53:23.486Z,1025.97
2017-05-16T06:54:32.657Z,1025.98
2017-05-16T06:55:41.620Z,1026
2017-05-16T06:56:50.582Z,1025.98
2017-05-16T06:57:59.895Z,1026
2017-05-16T06:59:08.861Z,1025.98
2017-05-16T07:00:17.824Z,1026.01
2017-05-16T07:01:26.790Z,1025.99
2017-05-16T07:02:35.753Z,1026.01
2017-05-16T07:03:45.546Z,1025.99
2017-05-16T07:04:54.519Z,1026
2017-05-16T07:06:03.479Z,1025.98
2017-05-16T07:07:12.445Z,1025.98
2017-05-16T07:08:21.415Z,1026.02
2017-05-16T07:09:30.680Z,1025.99
2017-05-16T07:10:39.884Z,1025.99
2017-05-16T07:11:49.168Z,1025.99
2017-05-16T07:12:58.139Z,1025.98
2017-05-16T07:14:07.103Z,1025.98
2017-05-16T07:15:16.618Z,1025.99
2017-05-16T07:16:26.125Z,1025.94
2017-05-16T07:17:35.424Z,1025.94
2017-05-16T07:18:44.565Z,1025.95
2017-05-16T07:19:53.532Z,1025.97
2017-05-16T07:21:04.726Z,1025.99
2017-05-16T07:22:14.861Z,1025.97
2017-05-16T07:23:24.699Z,1025.98
2017-05-16T07:24:35.169Z,1025.96
2017-05-16T07:25:45.362Z,1025.98
2017-05-16T07:26:56.317Z,1025.93
2017-05-16T07:28:05.828Z,1025.95
2017-05-16T07:29:16.320Z,1025.93
2017-05-16T07:30:25.795Z,1025.92
2017-05-16T07:31:35.685Z,1025.93
2017-05-16T07:32:46.612Z,1025.92
2017-05-16T07:33:57.115Z,1025.93
2017-05-16T07:35:06.179Z,1025.93
2017-05-16T07:36:15.816Z,1025.92
2017-05-16T07:37:25.812Z,1025.98
2017-05-16T07:38:36.019Z,1025.92
2017-05-16T07:39:46.496Z,1025.91
2017-05-16T07:40:55.761Z,1025.94
2017-05-16T07:42:05.709Z,1025.92
2017-05-16T07:43:15.632Z,1025.91
2017-05-16T07:44:27.008Z,1025.87
2017-05-16T07:45:37.046Z,1025.89
2017-05-16T07:46:47.162Z,1025.85
2017-05-16T07:47:58.041Z,1025.86
2017-05-16T07:49:08.806Z,1025.87
2017-05-16T07:50:18.567Z,1025.87
2017-05-16T07:51:27.543Z,1025.89
2017-05-16T07:52:36.587Z,1025.87
2017-05-16T07:53:45.886Z,1025.9
2017-05-16T07:54:55.901Z,1025.88
2017-05-16T07:56:06.903Z,1025.94
2017-05-16T07:57:17.500Z,1025.94
2017-05-16T07:58:26.469Z,1025.91
2017-05-16T07:59:35.625Z,1025.93
2017-05-16T08:00:44.953Z,1025.89
2017-05-16T08:01:54.266Z,1025.85
2017-05-16T08:03:03.346Z,1025.88
2017-05-16T08:04:12.428Z,1025.9
2017-05-16T08:05:21.689Z,1025.86
2017-05-16T08:06:30.916Z,1025.88
2017-05-16T08:07:40.177Z,1025.88
2017-05-16T08:08:49.271Z,1025.89
2017-05-16T08:09:58.332Z,1025.84
2017-05-16T08:11:08.794Z,1025.84
2017-05-16T08:12:18.060Z,1025.85
2017-05-16T08:13:27.351Z,1025.87
2017-05-16T08:14:36.859Z,1025.85
2017-05-16T08:15:45.843Z,1025.86
2017-05-16T08:16:54.829Z,1025.84
2017-05-16T08:18:04.088Z,1025.87
2017-05-16T08:19:13.348Z,1025.85
2017-05-16T08:20:23.031Z,1025.89
2017-05-16T08:21:32.680Z,1025.87
2017-05-16T08:22:41.731Z,1025.88
2017-05-16T08:23:50.792Z,1025.88
2017-05-16T08:25:00.096Z,1025.88
2017-05-16T08:26:09.321Z,1025.88
2017-05-16T08:27:18.375Z,1025.87
2017-05-16T08:28:27.337Z,1025.89
2017-05-16T08:29:36.307Z,1025.94
2017-05-16T08:30:45.778Z,1025.93
2017-05-16T08:31:54.746Z,1025.95
2017-05-16T08:33:03.712Z,1025.93
2017-05-16T08:34:12.727Z,1026.01
2017-05-16T08:35:21.697Z,1025.9
2017-05-16T08:36:30.958Z,1025.93
2017-05-16T08:37:45.540Z,1025.92
2017-05-16T08:38:55.908Z,1025.93
2017-05-16T08:40:05.089Z,1025.88
2017-05-16T08:41:14.054Z,1025.9
2017-05-16T08:42:23.412Z,1025.92
2017-05-16T08:43:32.390Z,1025.87
2017-05-16T08:44:41.355Z,1025.9
2017-05-16T08:45:50.404Z,1025.89
2017-05-16T08:46:59.365Z,1025.9
2017-05-16T08:48:08.765Z,1025.92
2017-05-16T08:49:17.873Z,1025.93
2017-05-16T08:50:27.366Z,1025.93
2017-05-16T08:51:38.812Z,1025.91
2017-05-16T08:52:49.915Z,1025.94
2017-05-16T08:54:01.196Z,1025.95
2017-05-16T08:55:11.822Z,1025.91
2017-05-16T08:56:22.176Z,1025.93
2017-05-16T08:57:31.160Z,1025.9
2017-05-16T08:58:40.210Z,1025.92
2017-05-16T08:59:49.481Z,1025.95
2017-05-16T09:00:58.442Z,1025.91
2017-05-16T09:02:07.412Z,1025.93
2017-05-16T09:03:16.376Z,1025.91
2017-05-16T09:04:25.343Z,1025.95
2017-05-16T09:05:34.610Z,1025.94
2017-05-16T09:06:43.578Z,1025.97
2017-05-16T09:07:52.551Z,1025.94
2017-05-16T09:09:01.524Z,1025.95
2017-05-16T09:10:10.489Z,1025.95
2017-05-16T09:11:19.724Z,1025.95
2017-05-16T09:12:29.007Z,1025.93
2017-05-16T09:13:37.976Z,1025.99
2017-05-16T09:14:46.943Z,1026
2017-05-16T09:15:55.914Z,1025.96
2017-05-16T09:17:05.200Z,1025.94
2017-05-16T09:18:14.166Z,1025.97
2017-05-16T09:19:23.133Z,1026.01
2017-05-16T09:20:32.217Z,1025.98
2017-05-16T09:21:41.242Z,1025.97
2017-05-16T09:22:50.781Z,1025.97
2017-05-16T09:23:59.746Z,1025.99
2017-05-16T09:25:08.734Z,1025.97
2017-05-16T09:26:17.817Z,1026.02
2017-05-16T09:27:26.786Z,1025.94
2017-05-16T09:28:36.051Z,1026.01
2017-05-16T09:29:45.023Z,1026.01
2017-05-16T09:30:54.080Z,1026.05
2017-05-16T09:32:03.041Z,1026.01
2017-05-16T09:33:12.180Z,1026
2017-05-16T09:34:21.500Z,1026.01
2017-05-16T09:35:30.557Z,1026.03
2017-05-16T09:36:39.523Z,1025.98
2017-05-16T09:37:48.581Z,1026.03
2017-05-16T09:38:57.575Z,1026.03
2017-05-16T09:40:06.932Z,1026.03
2017-05-16T09:41:15.992Z,1026
2017-05-16T09:42:25.047Z,1026.01
2017-05-16T09:43:34.098Z,1026.02
2017-05-16T09:44:43.241Z,1026.06
2017-05-16T09:45:52.894Z,1026.02
2017-05-16T09:47:02.070Z,1026
2017-05-16T09:48:13.219Z,1026.04
2017-05-16T09:49:23.889Z,1026
2017-05-16T09:50:32.932Z,1025.98
2017-05-16T09:51:42.226Z,1025.97
2017-05-16T09:52:51.370Z,1025.95
2017-05-16T09:54:00.332Z,1026
2017-05-16T09:55:09.298Z,1025.99
2017-05-16T09:56:18.347Z,1025.99
2017-05-16T09:57:27.697Z,1026.02
2017-05-16T09:58:36.661Z,1026.02
2017-05-16T09:59:45.628Z,1026.04
2017-05-16T10:00:54.602Z,1026
2017-05-16T10:02:03.606Z,1026.01
2017-05-16T10:03:12.913Z,1026
2017-05-16T10:04:21.879Z,1026
2017-05-16T10:05:30.938Z,1025.99
2017-05-16T10:06:39.900Z,1025.98
2017-05-16T10:07:48.866Z,1025.97
2017-05-16T10:08:58.145Z,1025.98
2017-05-16T10:10:07.432Z,1025.96
2017-05-16T10:11:16.402Z,1025.98
2017-05-16T10:12:25.371Z,1025.98
2017-05-16T10:13:34.425Z,1025.99
2017-05-16T10:14:43.687Z,1026.02
2017-05-16T10:15:52.650Z,1026
2017-05-16T10:17:01.611Z,1026
2017-05-16T10:18:10.576Z,1026
2017-05-16T10:19:19.628Z,1026.02
2017-05-16T10:20:29.177Z,1025.97
2017-05-16T10:21:38.140Z,1026
2017-05-16T10:22:47.102Z,1025.96
2017-05-16T10:23:56.072Z,1025.99
2017-05-16T10:25:05.034Z,1025.98
2017-05-16T10:26:14.964Z,1026
2017-05-16T10:27:24.021Z,1026
2017-05-16T10:28:33.090Z,1025.99
2017-05-16T10:29:44.292Z,1025.96
2017-05-16T10:30:53.359Z,1026
2017-05-16T10:32:03.307Z,1025.96
2017-05-16T10:33:13.582Z,1025.95
2017-05-16T10:34:22.612Z,1025.99
2017-05-16T10:37:14.649Z,1025.95
2017-05-16T10:38:25.106Z,1026
2017-05-16T10:39:40.825Z,1025.99
2017-05-16T10:40:57.029Z,1026.01
2017-05-16T10:42:14.272Z,1026
2017-05-16T10:43:29.589Z,1026
2017-05-16T10:44:43.626Z,1026.02
2017-05-16T10:45:53.764Z,1025.97
2017-05-16T10:47:02.833Z,1025.99
2017-05-16T10:48:12.116Z,1025.99
2017-05-16T10:49:21.455Z,1025.98
2017-05-16T10:50:30.909Z,1025.98
2017-05-16T10:51:40.586Z,1025.96
2017-05-16T10:52:49.995Z,1025.98
2017-05-16T10:53:59.274Z,1026
2017-05-16T10:55:09.035Z,1025.97
2017-05-16T10:56:19.633Z,1025.98
2017-05-16T10:57:29.988Z,1025.97
2017-05-16T10:58:40.763Z,1025.94
2017-05-16T11:00:00.921Z,1025.94
2017-05-16T11:01:16.242Z,1025.96
2017-05-16T11:02:26.606Z,1025.97
2017-05-16T11:03:36.983Z,1025.94
2017-05-16T11:04:55.741Z,1025.95
2017-05-16T11:06:06.297Z,1025.95
2017-05-16T11:07:25.862Z,1025.97
2017-05-16T11:08:38.303Z,1025.97
2017-05-16T11:09:50.009Z,1025.97
2017-05-16T11:11:01.423Z,1025.95
2017-05-16T11:12:15.026Z,1025.96
2017-05-16T11:13:23.992Z,1025.94
2017-05-16T11:14:32.960Z,1025.91
2017-05-16T11:15:42.224Z,1025.95
2017-05-16T11:16:51.189Z,1025.92
2017-05-16T11:18:00.152Z,1025.94
2017-05-16T11:19:09.131Z,1025.93
2017-05-16T11:20:18.187Z,1025.93
2017-05-16T11:21:27.547Z,1025.91
2017-05-16T11:22:36.511Z,1025.94
2017-05-16T11:23:45.472Z,1025.87
2017-05-16T11:24:54.436Z,1025.89
2017-05-16T11:26:03.397Z,1025.85
2017-05-16T11:27:12.798Z,1025.88
2017-05-16T11:28:21.762Z,1025.92
2017-05-16T11:29:30.724Z,1025.93
2017-05-16T11:30:39.694Z,1025.89
2017-05-16T11:31:48.658Z,1025.87
2017-05-16T11:32:58.247Z,1025.87
2017-05-16T11:34:07.212Z,1025.87
2017-05-16T11:35:16.180Z,1025.85
2017-05-16T11:36:25.155Z,1025.84
2017-05-16T11:37:34.119Z,1025.86
2017-05-16T11:38:43.472Z,1025.82
2017-05-16T11:39:52.759Z,1025.84
2017-05-16T11:41:01.813Z,1025.81
2017-05-16T11:42:10.779Z,1025.8
2017-05-16T11:43:19.835Z,1025.82
2017-05-16T11:44:29.102Z,1025.79
2017-05-16T11:45:38.067Z,1025.79
2017-05-16T11:46:47.091Z,1025.8
2017-05-16T11:47:56.062Z,1025.77
2017-05-16T11:49:05.029Z,1025.75
2017-05-16T11:50:14.293Z,1025.76
2017-05-16T11:51:23.575Z,1025.75
2017-05-16T11:52:32.536Z,1025.72
2017-05-16T11:53:41.588Z,1025.72
2017-05-16T11:54:50.553Z,1025.73
2017-05-16T11:55:59.875Z,1025.66
2017-05-16T11:57:08.835Z,1025.7
2017-05-16T11:58:17.798Z,1025.66
2017-05-16T11:59:26.854Z,1025.65
2017-05-16T12:00:35.923Z,1025.63
2017-05-16T12:01:45.144Z,1025.59
2017-05-16T12:02:54.114Z,1025.62
2017-05-16T12:04:03.721Z,1025.57
2017-05-16T12:05:12.683Z,1025.56
2017-05-16T12:06:21.703Z,1025.55
2017-05-16T12:07:30.965Z,1025.5
2017-05-16T12:08:39.930Z,1025.52
2017-05-16T12:09:48.993Z,1025.54
2017-05-16T12:10:57.959Z,1025.49
2017-05-16T12:12:06.928Z,1025.5
2017-05-16T12:13:16.280Z,1025.47
2017-05-16T12:14:25.246Z,1025.44
2017-05-16T12:15:34.299Z,1025.42
2017-05-16T12:16:43.262Z,1025.36
2017-05-16T12:17:52.226Z,1025.36
2017-05-16T12:19:01.573Z,1025.33
2017-05-16T12:20:10.534Z,1025.36
2017-05-16T12:21:19.499Z,1025.29
2017-05-16T12:22:28.550Z,1025.31
2017-05-16T12:23:37.517Z,1025.27
2017-05-16T12:24:46.780Z,1025.3
2017-05-16T12:25:55.743Z,1025.26
2017-05-16T12:27:04.796Z,1025.29
2017-05-16T12:28:13.763Z,1025.23
2017-05-16T12:29:22.735Z,1025.24
2017-05-16T12:30:32.086Z,1025.26
2017-05-16T12:31:41.050Z,1025.22
2017-05-16T12:32:50.109Z,1025.22
2017-05-16T12:33:59.072Z,1025.25
2017-05-16T12:35:08.211Z,1025.18
2017-05-16T12:36:17.521Z,1025.17
2017-05-16T12:37:26.571Z,1025.19
2017-05-16T12:38:35.539Z,1025.15
2017-05-16T12:39:44.535Z,1025.16
2017-05-16T12:40:53.563Z,1025.15
2017-05-16T12:42:02.822Z,1025.17
2017-05-16T12:43:11.782Z,1025.13
2017-05-16T12:44:20.749Z,1025.14
2017-05-16T12:45:30.043Z,1025.16
2017-05-16T12:46:39.086Z,1025.15
2017-05-16T12:47:48.434Z,1025.2
2017-05-16T12:48:57.393Z,1025.15
2017-05-16T12:50:06.449Z,1025.18
2017-05-16T12:51:15.725Z,1025.19
2017-05-16T12:52:24.689Z,1025.16
2017-05-16T12:53:34.049Z,1025.14
2017-05-16T12:54:43.015Z,1025.13
2017-05-16T12:55:51.979Z,1025.14
2017-05-16T12:57:00.949Z,1025.15
2017-05-16T12:58:10.331Z,1025.13
2017-05-16T12:59:19.641Z,1025.17
2017-05-16T13:00:28.639Z,1025.15
2017-05-16T13:01:37.603Z,1025.14
2017-05-16T13:02:46.565Z,1025.12
2017-05-16T13:03:55.592Z,1025.08
2017-05-16T13:05:05.337Z,1025.09
2017-05-16T13:06:14.300Z,1025.12
2017-05-16T13:07:23.285Z,1025.09
2017-05-16T13:08:32.352Z,1025.1
2017-05-16T13:09:41.659Z,1025.05
2017-05-16T13:10:50.868Z,1025.03
2017-05-16T13:11:59.824Z,1025.03
2017-05-16T13:13:08.789Z,1025.02
2017-05-16T13:14:17.798Z,1024.99
2017-05-16T13:15:26.771Z,1024.98
2017-05-16T13:16:36.048Z,1024.98
2017-05-16T13:17:45.100Z,1024.96
2017-05-16T13:18:54.069Z,1024.93
2017-05-16T13:20:03.035Z,1024.94
2017-05-16T13:21:12.028Z,1024.97
2017-05-16T13:22:21.294Z,1024.93
2017-05-16T13:23:30.262Z,1024.94
2017-05-16T13:24:39.326Z,1024.96
2017-05-16T13:25:48.313Z,1024.95
2017-05-16T13:26:57.273Z,1024.9
2017-05-16T13:28:06.540Z,1024.9
2017-05-16T13:29:15.782Z,1024.92
2017-05-16T13:30:25.162Z,1024.91
2017-05-16T13:31:34.124Z,1024.88
2017-05-16T13:32:43.093Z,1024.88
2017-05-16T13:33:52.364Z,1024.87
2017-05-16T13:35:01.333Z,1024.88
2017-05-16T13:36:10.297Z,1024.85
2017-05-16T13:37:19.253Z,1024.82
2017-05-16T13:38:28.305Z,1024.82
2017-05-16T13:39:37.580Z,1024.82
2017-05-16T13:40:46.540Z,1024.83
2017-05-16T13:41:55.501Z,1024.82
2017-05-16T13:43:04.474Z,1024.82
2017-05-16T13:44:13.431Z,1024.81
2017-05-16T13:45:23.284Z,1024.81
2017-05-16T13:46:32.327Z,1024.79
2017-05-16T13:47:41.292Z,1024.82
2017-05-16T13:48:50.451Z,1024.84
2017-05-16T13:49:59.416Z,1024.83
2017-05-16T13:51:08.767Z,1024.83
2017-05-16T13:52:17.735Z,1024.8
2017-05-16T13:53:26.704Z,1024.79
2017-05-16T13:54:35.670Z,1024.8
2017-05-16T13:55:44.630Z,1024.77
2017-05-16T13:56:53.899Z,1024.73
2017-05-16T13:58:02.860Z,1024.72
2017-05-16T13:59:11.827Z,1024.7
2017-05-16T14:00:20.879Z,1024.69
2017-05-16T14:01:29.927Z,1024.69
2017-05-16T14:02:39.189Z,1024.68
2017-05-16T14:03:48.171Z,1024.72
2017-05-16T14:04:57.138Z,1024.72
2017-05-16T14:06:06.109Z,1024.71
2017-05-16T14:07:15.074Z,1024.71
2017-05-16T14:08:24.377Z,1024.68